sensor_id;sensor_type;location;lat;lon;timestamp;P1;durP1;ratioP1;P2;durP2;ratioP2
18997;SDS011;9632;51.018;4.284;2022-11-20T00:00:47;35.78;;;17.27;;
18997;SDS011;9632;51.018;4.284;2022-11-20T00:03:13;34.55;;;17.20;;
18997;SDS011;9632;51.018;4.284;2022-11-20T00:05:39;32.20;;;16.10;;
18997;SDS011;9632;51.018;4.284;2022-11-20T00:08:04;35.70;;;17.25;;
18997;SDS011;9632;51.018;4.284;2022-11-20T00:10:30;32.30;;;17.00;;
18997;SDS011;9632;51.018;4.284;2022-11-20T00:12:57;31.55;;;15.98;;
18997;SDS011;9632;51.018;4.284;2022-11-20T00:15:23;36.03;;;17.15;;
18997;SDS011;9632;51.018;4.284;2022-11-20T00:17:49;33.05;;;16.48;;
18997;SDS011;9632;51.018;4.284;2022-11-20T00:20:15;30.90;;;16.13;;
18997;SDS011;9632;51.018;4.284;2022-11-20T00:22:40;33.97;;;17.65;;
18997;SDS011;9632;51.018;4.284;2022-11-20T00:25:06;30.48;;;16.45;;
18997;SDS011;9632;51.018;4.284;2022-11-20T00:27:32;36.13;;;17.55;;
18997;SDS011;9632;51.018;4.284;2022-11-20T00:29:57;33.85;;;16.85;;
18997;SDS011;9632;51.018;4.284;2022-11-20T00:32:23;38.00;;;18.77;;
18997;SDS011;9632;51.018;4.284;2022-11-20T00:34:49;36.95;;;19.15;;
18997;SDS011;9632;51.018;4.284;2022-11-20T00:37:14;36.42;;;18.67;;
18997;SDS011;9632;51.018;4.284;2022-11-20T00:39:40;36.85;;;18.23;;
18997;SDS011;9632;51.018;4.284;2022-11-20T00:42:06;36.55;;;17.80;;
18997;SDS011;9632;51.018;4.284;2022-11-20T00:44:31;37.05;;;18.65;;
18997;SDS011;9632;51.018;4.284;2022-11-20T00:46:57;39.47;;;18.65;;
18997;SDS011;9632;51.018;4.284;2022-11-20T00:49:22;43.25;;;19.58;;
18997;SDS011;9632;51.018;4.284;2022-11-20T00:51:48;39.90;;;19.85;;
18997;SDS011;9632;51.018;4.284;2022-11-20T00:54:14;41.20;;;20.00;;
18997;SDS011;9632;51.018;4.284;2022-11-20T00:56:39;42.90;;;21.08;;
18997;SDS011;9632;51.018;4.284;2022-11-20T00:59:05;43.88;;;20.73;;
18997;SDS011;9632;51.018;4.284;2022-11-20T01:01:30;41.92;;;20.35;;
18997;SDS011;9632;51.018;4.284;2022-11-20T01:03:57;39.83;;;18.45;;
18997;SDS011;9632;51.018;4.284;2022-11-20T01:06:25;42.30;;;20.60;;
18997;SDS011;9632;51.018;4.284;2022-11-20T01:08:54;39.78;;;19.88;;
18997;SDS011;9632;51.018;4.284;2022-11-20T01:11:25;36.78;;;18.92;;
18997;SDS011;9632;51.018;4.284;2022-11-20T01:13:56;35.42;;;18.63;;
18997;SDS011;9632;51.018;4.284;2022-11-20T01:16:26;36.13;;;18.50;;
18997;SDS011;9632;51.018;4.284;2022-11-20T01:18:57;34.67;;;17.35;;
18997;SDS011;9632;51.018;4.284;2022-11-20T01:21:29;33.42;;;18.02;;
18997;SDS011;9632;51.018;4.284;2022-11-20T01:23:56;33.92;;;17.25;;
18997;SDS011;9632;51.018;4.284;2022-11-20T01:26:23;34.40;;;17.92;;
18997;SDS011;9632;51.018;4.284;2022-11-20T01:28:51;38.30;;;18.60;;
18997;SDS011;9632;51.018;4.284;2022-11-20T01:31:19;37.13;;;18.60;;
18997;SDS011;9632;51.018;4.284;2022-11-20T01:33:49;34.50;;;17.85;;
18997;SDS011;9632;51.018;4.284;2022-11-20T01:36:16;37.13;;;19.30;;
18997;SDS011;9632;51.018;4.284;2022-11-20T01:38:43;35.17;;;18.35;;
18997;SDS011;9632;51.018;4.284;2022-11-20T01:41:09;34.00;;;18.15;;
18997;SDS011;9632;51.018;4.284;2022-11-20T01:43:36;33.85;;;17.33;;
18997;SDS011;9632;51.018;4.284;2022-11-20T01:51:43;40.13;;;18.77;;
18997;SDS011;9632;51.018;4.284;2022-11-20T01:54:16;38.50;;;17.65;;
18997;SDS011;9632;51.018;4.284;2022-11-20T01:56:44;36.92;;;18.23;;
18997;SDS011;9632;51.018;4.284;2022-11-20T01:59:13;38.05;;;18.30;;
18997;SDS011;9632;51.018;4.284;2022-11-20T02:01:42;36.25;;;18.38;;
18997;SDS011;9632;51.018;4.284;2022-11-20T02:04:08;36.20;;;18.27;;
18997;SDS011;9632;51.018;4.284;2022-11-20T02:09:14;37.05;;;18.33;;
18997;SDS011;9632;51.018;4.284;2022-11-20T02:11:40;34.00;;;17.92;;
18997;SDS011;9632;51.018;4.284;2022-11-20T02:14:06;38.28;;;18.42;;
18997;SDS011;9632;51.018;4.284;2022-11-20T02:16:36;41.63;;;18.17;;
18997;SDS011;9632;51.018;4.284;2022-11-20T02:19:06;39.30;;;19.23;;
18997;SDS011;9632;51.018;4.284;2022-11-20T02:21:47;34.13;;;18.08;;
18997;SDS011;9632;51.018;4.284;2022-11-20T02:24:21;39.72;;;18.95;;
18997;SDS011;9632;51.018;4.284;2022-11-20T02:27:03;40.95;;;20.58;;
18997;SDS011;9632;51.018;4.284;2022-11-20T02:29:36;36.50;;;18.88;;
18997;SDS011;9632;51.018;4.284;2022-11-20T02:32:06;40.05;;;20.05;;
18997;SDS011;9632;51.018;4.284;2022-11-20T02:34:42;39.67;;;19.80;;
18997;SDS011;9632;51.018;4.284;2022-11-20T02:37:07;41.05;;;19.90;;
18997;SDS011;9632;51.018;4.284;2022-11-20T02:39:33;42.15;;;20.67;;
18997;SDS011;9632;51.018;4.284;2022-11-20T02:42:00;40.08;;;19.58;;
18997;SDS011;9632;51.018;4.284;2022-11-20T02:44:26;43.97;;;20.50;;
18997;SDS011;9632;51.018;4.284;2022-11-20T02:46:52;45.15;;;21.73;;
18997;SDS011;9632;51.018;4.284;2022-11-20T02:49:17;46.05;;;22.00;;
18997;SDS011;9632;51.018;4.284;2022-11-20T02:51:43;45.28;;;20.65;;
18997;SDS011;9632;51.018;4.284;2022-11-20T02:54:09;43.20;;;20.80;;
18997;SDS011;9632;51.018;4.284;2022-11-20T02:56:37;45.15;;;22.15;;
18997;SDS011;9632;51.018;4.284;2022-11-20T02:59:03;45.35;;;21.77;;
18997;SDS011;9632;51.018;4.284;2022-11-20T03:01:29;49.30;;;22.98;;
18997;SDS011;9632;51.018;4.284;2022-11-20T03:03:55;48.90;;;23.10;;
18997;SDS011;9632;51.018;4.284;2022-11-20T03:06:21;47.58;;;22.38;;
18997;SDS011;9632;51.018;4.284;2022-11-20T03:08:46;50.40;;;23.55;;
18997;SDS011;9632;51.018;4.284;2022-11-20T03:11:12;51.45;;;24.48;;
18997;SDS011;9632;51.018;4.284;2022-11-20T03:13:38;48.95;;;22.60;;
18997;SDS011;9632;51.018;4.284;2022-11-20T03:16:11;52.55;;;23.15;;
18997;SDS011;9632;51.018;4.284;2022-11-20T03:18:39;55.28;;;22.98;;
18997;SDS011;9632;51.018;4.284;2022-11-20T03:21:06;52.95;;;23.23;;
18997;SDS011;9632;51.018;4.284;2022-11-20T03:23:33;50.65;;;23.23;;
18997;SDS011;9632;51.018;4.284;2022-11-20T03:26:18;53.15;;;23.20;;
18997;SDS011;9632;51.018;4.284;2022-11-20T03:28:47;51.17;;;22.95;;
18997;SDS011;9632;51.018;4.284;2022-11-20T03:31:14;52.15;;;22.80;;
18997;SDS011;9632;51.018;4.284;2022-11-20T03:33:42;51.58;;;23.25;;
18997;SDS011;9632;51.018;4.284;2022-11-20T03:36:09;52.45;;;22.88;;
18997;SDS011;9632;51.018;4.284;2022-11-20T03:38:37;51.42;;;23.30;;
18997;SDS011;9632;51.018;4.284;2022-11-20T03:41:04;56.22;;;24.38;;
18997;SDS011;9632;51.018;4.284;2022-11-20T03:43:32;51.83;;;22.65;;
18997;SDS011;9632;51.018;4.284;2022-11-20T03:45:58;51.25;;;23.08;;
18997;SDS011;9632;51.018;4.284;2022-11-20T03:48:24;55.13;;;23.65;;
18997;SDS011;9632;51.018;4.284;2022-11-20T03:50:50;56.20;;;24.38;;
18997;SDS011;9632;51.018;4.284;2022-11-20T03:53:16;53.97;;;23.13;;
18997;SDS011;9632;51.018;4.284;2022-11-20T03:55:42;53.78;;;24.10;;
18997;SDS011;9632;51.018;4.284;2022-11-20T03:58:08;50.15;;;22.80;;
18997;SDS011;9632;51.018;4.284;2022-11-20T04:00:34;51.67;;;23.15;;
18997;SDS011;9632;51.018;4.284;2022-11-20T04:03:00;48.47;;;22.67;;
18997;SDS011;9632;51.018;4.284;2022-11-20T04:05:27;54.45;;;23.75;;
18997;SDS011;9632;51.018;4.284;2022-11-20T04:07:53;53.30;;;23.30;;
18997;SDS011;9632;51.018;4.284;2022-11-20T04:10:18;55.20;;;23.48;;
18997;SDS011;9632;51.018;4.284;2022-11-20T04:12:44;55.30;;;24.45;;
18997;SDS011;9632;51.018;4.284;2022-11-20T04:15:10;53.10;;;23.30;;
18997;SDS011;9632;51.018;4.284;2022-11-20T04:17:35;46.40;;;21.73;;
18997;SDS011;9632;51.018;4.284;2022-11-20T04:20:01;49.58;;;22.23;;
18997;SDS011;9632;51.018;4.284;2022-11-20T04:22:27;50.60;;;22.83;;
18997;SDS011;9632;51.018;4.284;2022-11-20T04:24:53;47.17;;;21.38;;
18997;SDS011;9632;51.018;4.284;2022-11-20T04:27:18;53.67;;;23.10;;
18997;SDS011;9632;51.018;4.284;2022-11-20T04:29:44;48.17;;;22.23;;
18997;SDS011;9632;51.018;4.284;2022-11-20T04:32:09;45.60;;;20.70;;
18997;SDS011;9632;51.018;4.284;2022-11-20T04:34:35;48.03;;;21.38;;
18997;SDS011;9632;51.018;4.284;2022-11-20T04:37:01;51.67;;;22.88;;
18997;SDS011;9632;51.018;4.284;2022-11-20T04:39:26;50.95;;;21.63;;
18997;SDS011;9632;51.018;4.284;2022-11-20T04:41:52;49.42;;;21.50;;
18997;SDS011;9632;51.018;4.284;2022-11-20T04:44:37;45.72;;;20.98;;
18997;SDS011;9632;51.018;4.284;2022-11-20T04:47:03;46.28;;;20.08;;
18997;SDS011;9632;51.018;4.284;2022-11-20T04:49:29;48.20;;;20.90;;
18997;SDS011;9632;51.018;4.284;2022-11-20T04:51:56;48.47;;;21.17;;
18997;SDS011;9632;51.018;4.284;2022-11-20T04:54:22;47.70;;;21.40;;
18997;SDS011;9632;51.018;4.284;2022-11-20T04:56:48;46.65;;;21.60;;
18997;SDS011;9632;51.018;4.284;2022-11-20T04:59:13;52.60;;;22.63;;
18997;SDS011;9632;51.018;4.284;2022-11-20T05:01:39;51.90;;;22.48;;
18997;SDS011;9632;51.018;4.284;2022-11-20T05:04:05;47.40;;;21.58;;
18997;SDS011;9632;51.018;4.284;2022-11-20T05:06:30;49.97;;;21.27;;
18997;SDS011;9632;51.018;4.284;2022-11-20T05:08:57;50.10;;;23.05;;
18997;SDS011;9632;51.018;4.284;2022-11-20T05:11:22;48.80;;;21.05;;
18997;SDS011;9632;51.018;4.284;2022-11-20T05:13:49;49.22;;;22.10;;
18997;SDS011;9632;51.018;4.284;2022-11-20T05:16:16;49.72;;;21.55;;
18997;SDS011;9632;51.018;4.284;2022-11-20T05:18:46;48.70;;;21.45;;
18997;SDS011;9632;51.018;4.284;2022-11-20T05:21:13;48.95;;;21.55;;
18997;SDS011;9632;51.018;4.284;2022-11-20T05:23:38;49.00;;;22.50;;
18997;SDS011;9632;51.018;4.284;2022-11-20T05:26:05;51.78;;;21.98;;
18997;SDS011;9632;51.018;4.284;2022-11-20T05:28:33;51.20;;;21.63;;
18997;SDS011;9632;51.018;4.284;2022-11-20T05:31:09;55.85;;;23.42;;
18997;SDS011;9632;51.018;4.284;2022-11-20T05:33:36;53.40;;;22.88;;
18997;SDS011;9632;51.018;4.284;2022-11-20T05:36:05;56.35;;;23.80;;
18997;SDS011;9632;51.018;4.284;2022-11-20T05:38:31;56.63;;;23.48;;
18997;SDS011;9632;51.018;4.284;2022-11-20T05:41:07;56.30;;;22.98;;
18997;SDS011;9632;51.018;4.284;2022-11-20T05:43:38;57.83;;;23.70;;
18997;SDS011;9632;51.018;4.284;2022-11-20T05:46:05;51.08;;;22.23;;
18997;SDS011;9632;51.018;4.284;2022-11-20T05:48:32;51.63;;;22.85;;
18997;SDS011;9632;51.018;4.284;2022-11-20T05:51:00;50.60;;;21.70;;
18997;SDS011;9632;51.018;4.284;2022-11-20T05:53:27;48.85;;;21.70;;
18997;SDS011;9632;51.018;4.284;2022-11-20T05:55:57;50.70;;;22.63;;
18997;SDS011;9632;51.018;4.284;2022-11-20T05:58:26;56.28;;;22.52;;
18997;SDS011;9632;51.018;4.284;2022-11-20T06:00:53;46.10;;;21.30;;
18997;SDS011;9632;51.018;4.284;2022-11-20T06:03:19;58.22;;;23.75;;
18997;SDS011;9632;51.018;4.284;2022-11-20T06:05:44;54.22;;;23.08;;
18997;SDS011;9632;51.018;4.284;2022-11-20T06:08:10;51.70;;;21.70;;
18997;SDS011;9632;51.018;4.284;2022-11-20T06:10:36;54.28;;;22.92;;
18997;SDS011;9632;51.018;4.284;2022-11-20T06:13:01;50.75;;;22.02;;
18997;SDS011;9632;51.018;4.284;2022-11-20T06:15:27;52.85;;;22.92;;
18997;SDS011;9632;51.018;4.284;2022-11-20T06:17:53;54.28;;;23.15;;
18997;SDS011;9632;51.018;4.284;2022-11-20T06:20:19;55.78;;;23.63;;
18997;SDS011;9632;51.018;4.284;2022-11-20T06:22:45;54.72;;;23.15;;
18997;SDS011;9632;51.018;4.284;2022-11-20T06:25:11;56.80;;;22.52;;
18997;SDS011;9632;51.018;4.284;2022-11-20T06:27:37;52.45;;;22.10;;
18997;SDS011;9632;51.018;4.284;2022-11-20T06:30:03;58.33;;;23.67;;
18997;SDS011;9632;51.018;4.284;2022-11-20T06:32:29;57.20;;;22.60;;
18997;SDS011;9632;51.018;4.284;2022-11-20T06:34:54;55.33;;;22.55;;
18997;SDS011;9632;51.018;4.284;2022-11-20T06:37:20;58.97;;;23.13;;
18997;SDS011;9632;51.018;4.284;2022-11-20T06:39:45;52.20;;;21.35;;
18997;SDS011;9632;51.018;4.284;2022-11-20T06:42:11;54.08;;;21.63;;
18997;SDS011;9632;51.018;4.284;2022-11-20T06:44:37;51.53;;;22.20;;
18997;SDS011;9632;51.018;4.284;2022-11-20T06:47:03;52.38;;;22.02;;
18997;SDS011;9632;51.018;4.284;2022-11-20T06:49:29;54.65;;;22.60;;
18997;SDS011;9632;51.018;4.284;2022-11-20T06:51:54;56.30;;;21.92;;
18997;SDS011;9632;51.018;4.284;2022-11-20T06:54:20;56.80;;;22.05;;
18997;SDS011;9632;51.018;4.284;2022-11-20T06:56:48;57.78;;;23.00;;
18997;SDS011;9632;51.018;4.284;2022-11-20T06:59:14;63.38;;;24.20;;
18997;SDS011;9632;51.018;4.284;2022-11-20T07:01:40;66.68;;;25.15;;
18997;SDS011;9632;51.018;4.284;2022-11-20T07:04:05;72.40;;;27.30;;
18997;SDS011;9632;51.018;4.284;2022-11-20T07:06:31;74.68;;;26.13;;
18997;SDS011;9632;51.018;4.284;2022-11-20T07:08:57;75.90;;;24.67;;
18997;SDS011;9632;51.018;4.284;2022-11-20T07:11:23;70.20;;;25.17;;
18997;SDS011;9632;51.018;4.284;2022-11-20T07:13:48;69.97;;;24.05;;
18997;SDS011;9632;51.018;4.284;2022-11-20T07:16:14;81.88;;;26.52;;
18997;SDS011;9632;51.018;4.284;2022-11-20T07:18:40;82.32;;;26.70;;
18997;SDS011;9632;51.018;4.284;2022-11-20T07:21:09;82.90;;;27.50;;
18997;SDS011;9632;51.018;4.284;2022-11-20T07:23:36;81.55;;;26.67;;
18997;SDS011;9632;51.018;4.284;2022-11-20T07:26:02;87.82;;;27.02;;
18997;SDS011;9632;51.018;4.284;2022-11-20T07:28:32;82.00;;;25.98;;
18997;SDS011;9632;51.018;4.284;2022-11-20T07:30:58;74.22;;;26.50;;
18997;SDS011;9632;51.018;4.284;2022-11-20T07:33:23;85.95;;;28.40;;
18997;SDS011;9632;51.018;4.284;2022-11-20T07:35:49;88.38;;;28.17;;
18997;SDS011;9632;51.018;4.284;2022-11-20T07:38:15;98.70;;;28.98;;
18997;SDS011;9632;51.018;4.284;2022-11-20T07:40:40;100.75;;;29.55;;
18997;SDS011;9632;51.018;4.284;2022-11-20T07:43:06;89.22;;;28.25;;
18997;SDS011;9632;51.018;4.284;2022-11-20T07:45:32;83.80;;;27.92;;
18997;SDS011;9632;51.018;4.284;2022-11-20T07:47:57;98.68;;;29.42;;
18997;SDS011;9632;51.018;4.284;2022-11-20T07:50:23;86.72;;;28.15;;
18997;SDS011;9632;51.018;4.284;2022-11-20T07:52:49;92.25;;;28.63;;
18997;SDS011;9632;51.018;4.284;2022-11-20T07:55:14;83.72;;;27.92;;
18997;SDS011;9632;51.018;4.284;2022-11-20T07:57:40;84.00;;;26.77;;
18997;SDS011;9632;51.018;4.284;2022-11-20T08:00:07;78.93;;;27.15;;
18997;SDS011;9632;51.018;4.284;2022-11-20T08:02:36;73.00;;;26.05;;
18997;SDS011;9632;51.018;4.284;2022-11-20T08:05:03;71.22;;;25.92;;
18997;SDS011;9632;51.018;4.284;2022-11-20T08:07:34;71.30;;;26.58;;
18997;SDS011;9632;51.018;4.284;2022-11-20T08:10:01;72.15;;;26.45;;
18997;SDS011;9632;51.018;4.284;2022-11-20T08:12:27;78.68;;;26.13;;
18997;SDS011;9632;51.018;4.284;2022-11-20T08:15:11;70.25;;;24.98;;
18997;SDS011;9632;51.018;4.284;2022-11-20T08:17:37;72.72;;;26.17;;
18997;SDS011;9632;51.018;4.284;2022-11-20T08:20:03;84.97;;;29.10;;
18997;SDS011;9632;51.018;4.284;2022-11-20T08:22:28;80.40;;;27.83;;
18997;SDS011;9632;51.018;4.284;2022-11-20T08:24:54;81.80;;;27.95;;
18997;SDS011;9632;51.018;4.284;2022-11-20T08:27:20;79.47;;;25.83;;
18997;SDS011;9632;51.018;4.284;2022-11-20T08:29:45;78.45;;;27.33;;
18997;SDS011;9632;51.018;4.284;2022-11-20T08:32:11;75.82;;;25.83;;
18997;SDS011;9632;51.018;4.284;2022-11-20T08:34:37;75.65;;;26.40;;
18997;SDS011;9632;51.018;4.284;2022-11-20T08:37:02;74.03;;;27.30;;
18997;SDS011;9632;51.018;4.284;2022-11-20T08:39:28;78.25;;;27.08;;
18997;SDS011;9632;51.018;4.284;2022-11-20T08:41:54;78.47;;;27.80;;
18997;SDS011;9632;51.018;4.284;2022-11-20T08:44:19;78.40;;;27.40;;
18997;SDS011;9632;51.018;4.284;2022-11-20T08:46:45;76.57;;;27.45;;
18997;SDS011;9632;51.018;4.284;2022-11-20T08:49:12;73.22;;;26.05;;
18997;SDS011;9632;51.018;4.284;2022-11-20T08:51:39;70.43;;;25.58;;
18997;SDS011;9632;51.018;4.284;2022-11-20T08:54:05;77.97;;;27.40;;
18997;SDS011;9632;51.018;4.284;2022-11-20T08:56:31;74.93;;;26.08;;
18997;SDS011;9632;51.018;4.284;2022-11-20T08:58:57;80.85;;;27.27;;
18997;SDS011;9632;51.018;4.284;2022-11-20T09:01:24;69.45;;;25.63;;
18997;SDS011;9632;51.018;4.284;2022-11-20T09:03:51;87.15;;;28.75;;
18997;SDS011;9632;51.018;4.284;2022-11-20T09:06:17;77.60;;;27.08;;
18997;SDS011;9632;51.018;4.284;2022-11-20T09:08:43;85.97;;;28.27;;
18997;SDS011;9632;51.018;4.284;2022-11-20T09:11:08;82.97;;;27.70;;
18997;SDS011;9632;51.018;4.284;2022-11-20T09:13:34;80.68;;;27.38;;
18997;SDS011;9632;51.018;4.284;2022-11-20T09:16:03;88.47;;;28.95;;
18997;SDS011;9632;51.018;4.284;2022-11-20T09:18:30;76.30;;;26.67;;
18997;SDS011;9632;51.018;4.284;2022-11-20T09:21:00;85.03;;;27.50;;
18997;SDS011;9632;51.018;4.284;2022-11-20T09:23:30;78.22;;;25.75;;
18997;SDS011;9632;51.018;4.284;2022-11-20T09:26:00;77.20;;;26.83;;
18997;SDS011;9632;51.018;4.284;2022-11-20T09:28:34;80.47;;;27.17;;
18997;SDS011;9632;51.018;4.284;2022-11-20T09:31:00;68.80;;;23.70;;
18997;SDS011;9632;51.018;4.284;2022-11-20T09:33:29;73.38;;;24.38;;
18997;SDS011;9632;51.018;4.284;2022-11-20T09:35:55;71.88;;;23.85;;
18997;SDS011;9632;51.018;4.284;2022-11-20T09:38:20;72.65;;;23.85;;
18997;SDS011;9632;51.018;4.284;2022-11-20T09:41:05;71.28;;;24.00;;
18997;SDS011;9632;51.018;4.284;2022-11-20T09:43:50;75.10;;;24.25;;
18997;SDS011;9632;51.018;4.284;2022-11-20T09:46:37;83.90;;;25.88;;
18997;SDS011;9632;51.018;4.284;2022-11-20T09:49:27;93.18;;;27.52;;
18997;SDS011;9632;51.018;4.284;2022-11-20T09:54:45;89.50;;;26.52;;
18997;SDS011;9632;51.018;4.284;2022-11-20T09:57:12;85.63;;;25.83;;
18997;SDS011;9632;51.018;4.284;2022-11-20T09:59:45;71.53;;;22.52;;
18997;SDS011;9632;51.018;4.284;2022-11-20T10:02:16;75.55;;;25.38;;
18997;SDS011;9632;51.018;4.284;2022-11-20T10:04:51;68.45;;;23.98;;
18997;SDS011;9632;51.018;4.284;2022-11-20T10:07:43;75.13;;;24.17;;
18997;SDS011;9632;51.018;4.284;2022-11-20T10:10:18;64.90;;;22.08;;
18997;SDS011;9632;51.018;4.284;2022-11-20T10:15:41;64.78;;;21.98;;
18997;SDS011;9632;51.018;4.284;2022-11-20T10:21:08;68.47;;;22.92;;
18997;SDS011;9632;51.018;4.284;2022-11-20T10:23:44;67.65;;;23.17;;
18997;SDS011;9632;51.018;4.284;2022-11-20T10:26:31;65.22;;;21.55;;
18997;SDS011;9632;51.018;4.284;2022-11-20T10:31:40;57.45;;;20.10;;
18997;SDS011;9632;51.018;4.284;2022-11-20T10:34:13;59.90;;;19.67;;
18997;SDS011;9632;51.018;4.284;2022-11-20T10:37:37;57.72;;;19.90;;
18997;SDS011;9632;51.018;4.284;2022-11-20T10:42:31;56.67;;;18.67;;
18997;SDS011;9632;51.018;4.284;2022-11-20T10:47:49;44.65;;;16.75;;
18997;SDS011;9632;51.018;4.284;2022-11-20T10:50:17;50.80;;;18.50;;
18997;SDS011;9632;51.018;4.284;2022-11-20T10:58:12;45.83;;;18.05;;
18997;SDS011;9632;51.018;4.284;2022-11-20T11:00:39;39.72;;;16.40;;
18997;SDS011;9632;51.018;4.284;2022-11-20T11:03:14;41.25;;;14.35;;
18997;SDS011;9632;51.018;4.284;2022-11-20T11:08:24;33.70;;;13.23;;
18997;SDS011;9632;51.018;4.284;2022-11-20T11:10:54;29.70;;;12.15;;
18997;SDS011;9632;51.018;4.284;2022-11-20T11:13:23;28.50;;;11.50;;
18997;SDS011;9632;51.018;4.284;2022-11-20T11:15:53;29.73;;;12.05;;
18997;SDS011;9632;51.018;4.284;2022-11-20T11:19:02;29.58;;;11.80;;
18997;SDS011;9632;51.018;4.284;2022-11-20T11:21:12;20.50;;;7.80;;
18997;SDS011;9632;51.018;4.284;2022-11-20T11:23:41;15.95;;;6.80;;
18997;SDS011;9632;51.018;4.284;2022-11-20T11:26:21;15.50;;;6.70;;
18997;SDS011;9632;51.018;4.284;2022-11-20T11:29:00;14.27;;;5.68;;
18997;SDS011;9632;51.018;4.284;2022-11-20T11:34:11;10.27;;;4.13;;
18997;SDS011;9632;51.018;4.284;2022-11-20T11:36:37;13.05;;;3.78;;
18997;SDS011;9632;51.018;4.284;2022-11-20T11:39:03;12.95;;;3.45;;
18997;SDS011;9632;51.018;4.284;2022-11-20T11:41:32;12.30;;;4.78;;
18997;SDS011;9632;51.018;4.284;2022-11-20T11:44:17;19.73;;;7.80;;
18997;SDS011;9632;51.018;4.284;2022-11-20T11:47:05;15.20;;;4.50;;
18997;SDS011;9632;51.018;4.284;2022-11-20T11:49:44;11.23;;;4.10;;
18997;SDS011;9632;51.018;4.284;2022-11-20T11:52:17;15.68;;;5.35;;
18997;SDS011;9632;51.018;4.284;2022-11-20T11:54:49;10.90;;;3.33;;
18997;SDS011;9632;51.018;4.284;2022-11-20T11:57:29;5.65;;;2.45;;
18997;SDS011;9632;51.018;4.284;2022-11-20T12:00:16;7.93;;;2.40;;
18997;SDS011;9632;51.018;4.284;2022-11-20T12:07:46;9.75;;;2.33;;
18997;SDS011;9632;51.018;4.284;2022-11-20T12:10:15;9.90;;;2.42;;
18997;SDS011;9632;51.018;4.284;2022-11-20T12:12:46;7.68;;;2.05;;
18997;SDS011;9632;51.018;4.284;2022-11-20T12:15:21;5.63;;;1.85;;
18997;SDS011;9632;51.018;4.284;2022-11-20T12:17:51;14.73;;;2.25;;
18997;SDS011;9632;51.018;4.284;2022-11-20T12:20:17;8.80;;;2.30;;
18997;SDS011;9632;51.018;4.284;2022-11-20T12:22:48;8.32;;;2.28;;
18997;SDS011;9632;51.018;4.284;2022-11-20T12:25:27;15.20;;;3.20;;
18997;SDS011;9632;51.018;4.284;2022-11-20T12:30:29;7.10;;;1.95;;
18997;SDS011;9632;51.018;4.284;2022-11-20T12:36:03;8.88;;;2.90;;
18997;SDS011;9632;51.018;4.284;2022-11-20T12:41:42;12.13;;;2.90;;
18997;SDS011;9632;51.018;4.284;2022-11-20T13:00:30;14.52;;;4.30;;
18997;SDS011;9632;51.018;4.284;2022-11-20T13:08:41;12.90;;;3.90;;
18997;SDS011;9632;51.018;4.284;2022-11-20T13:14:29;14.95;;;3.80;;
18997;SDS011;9632;51.018;4.284;2022-11-20T13:19:56;13.88;;;4.32;;
18997;SDS011;9632;51.018;4.284;2022-11-20T13:22:42;10.93;;;3.97;;
18997;SDS011;9632;51.018;4.284;2022-11-20T13:30:35;11.98;;;4.00;;
18997;SDS011;9632;51.018;4.284;2022-11-20T13:33:32;13.25;;;3.80;;
18997;SDS011;9632;51.018;4.284;2022-11-20T13:36:03;10.88;;;3.78;;
18997;SDS011;9632;51.018;4.284;2022-11-20T13:38:52;13.30;;;3.65;;
18997;SDS011;9632;51.018;4.284;2022-11-20T13:44:46;10.13;;;3.70;;
18997;SDS011;9632;51.018;4.284;2022-11-20T13:46:50;10.18;;;3.05;;
18997;SDS011;9632;51.018;4.284;2022-11-20T13:49:26;7.60;;;3.03;;
18997;SDS011;9632;51.018;4.284;2022-11-20T13:54:35;10.20;;;5.03;;
18997;SDS011;9632;51.018;4.284;2022-11-20T14:02:42;9.50;;;3.90;;
18997;SDS011;9632;51.018;4.284;2022-11-20T14:05:17;5.95;;;2.65;;
18997;SDS011;9632;51.018;4.284;2022-11-20T14:07:48;6.97;;;2.90;;
18997;SDS011;9632;51.018;4.284;2022-11-20T14:10:23;4.07;;;2.40;;
18997;SDS011;9632;51.018;4.284;2022-11-20T14:12:50;3.88;;;2.13;;
18997;SDS011;9632;51.018;4.284;2022-11-20T14:15:29;4.43;;;2.00;;
18997;SDS011;9632;51.018;4.284;2022-11-20T14:17:57;4.88;;;2.67;;
18997;SDS011;9632;51.018;4.284;2022-11-20T14:20:24;4.95;;;2.67;;
18997;SDS011;9632;51.018;4.284;2022-11-20T14:22:53;5.65;;;2.67;;
18997;SDS011;9632;51.018;4.284;2022-11-20T14:25:21;4.35;;;2.53;;
18997;SDS011;9632;51.018;4.284;2022-11-20T14:27:52;3.42;;;2.28;;
18997;SDS011;9632;51.018;4.284;2022-11-20T14:30:21;3.83;;;2.20;;
18997;SDS011;9632;51.018;4.284;2022-11-20T14:32:49;7.03;;;2.45;;
18997;SDS011;9632;51.018;4.284;2022-11-20T14:38:12;4.63;;;2.38;;
18997;SDS011;9632;51.018;4.284;2022-11-20T14:40:40;5.40;;;2.40;;
18997;SDS011;9632;51.018;4.284;2022-11-20T14:45:54;4.35;;;2.30;;
18997;SDS011;9632;51.018;4.284;2022-11-20T14:48:22;4.07;;;2.05;;
18997;SDS011;9632;51.018;4.284;2022-11-20T14:50:54;5.20;;;2.38;;
18997;SDS011;9632;51.018;4.284;2022-11-20T14:53:23;3.47;;;2.10;;
18997;SDS011;9632;51.018;4.284;2022-11-20T14:55:54;4.38;;;2.05;;
18997;SDS011;9632;51.018;4.284;2022-11-20T14:58:25;9.38;;;5.00;;
18997;SDS011;9632;51.018;4.284;2022-11-20T15:00:54;6.55;;;2.90;;
18997;SDS011;9632;51.018;4.284;2022-11-20T15:03:21;5.47;;;2.58;;
18997;SDS011;9632;51.018;4.284;2022-11-20T15:05:48;5.97;;;2.30;;
18997;SDS011;9632;51.018;4.284;2022-11-20T15:08:14;4.05;;;2.70;;
18997;SDS011;9632;51.018;4.284;2022-11-20T15:10:47;6.70;;;2.70;;
18997;SDS011;9632;51.018;4.284;2022-11-20T15:13:20;6.68;;;2.80;;
18997;SDS011;9632;51.018;4.284;2022-11-20T15:16:01;4.85;;;3.00;;
18997;SDS011;9632;51.018;4.284;2022-11-20T15:18:37;7.05;;;2.90;;
18997;SDS011;9632;51.018;4.284;2022-11-20T15:21:10;6.00;;;2.80;;
18997;SDS011;9632;51.018;4.284;2022-11-20T15:23:41;9.18;;;3.40;;
18997;SDS011;9632;51.018;4.284;2022-11-20T15:26:08;7.68;;;3.40;;
18997;SDS011;9632;51.018;4.284;2022-11-20T15:28:41;6.78;;;3.10;;
18997;SDS011;9632;51.018;4.284;2022-11-20T15:31:11;11.73;;;3.70;;
18997;SDS011;9632;51.018;4.284;2022-11-20T15:33:37;6.78;;;3.45;;
18997;SDS011;9632;51.018;4.284;2022-11-20T15:36:03;9.48;;;3.65;;
18997;SDS011;9632;51.018;4.284;2022-11-20T15:38:29;9.90;;;3.70;;
18997;SDS011;9632;51.018;4.284;2022-11-20T15:40:54;7.95;;;3.40;;
18997;SDS011;9632;51.018;4.284;2022-11-20T15:43:20;6.00;;;3.50;;
18997;SDS011;9632;51.018;4.284;2022-11-20T15:45:47;9.57;;;3.58;;
18997;SDS011;9632;51.018;4.284;2022-11-20T15:48:35;11.18;;;3.85;;
18997;SDS011;9632;51.018;4.284;2022-11-20T15:51:06;8.70;;;4.07;;
18997;SDS011;9632;51.018;4.284;2022-11-20T15:53:35;10.73;;;3.10;;
18997;SDS011;9632;51.018;4.284;2022-11-20T15:56:02;11.95;;;4.03;;
18997;SDS011;9632;51.018;4.284;2022-11-20T15:58:28;14.70;;;4.93;;
18997;SDS011;9632;51.018;4.284;2022-11-20T16:00:54;14.05;;;3.90;;
18997;SDS011;9632;51.018;4.284;2022-11-20T16:03:20;16.10;;;4.05;;
18997;SDS011;9632;51.018;4.284;2022-11-20T16:05:46;12.52;;;3.97;;
18997;SDS011;9632;51.018;4.284;2022-11-20T16:08:11;17.65;;;4.65;;
18997;SDS011;9632;51.018;4.284;2022-11-20T16:10:37;15.00;;;4.90;;
18997;SDS011;9632;51.018;4.284;2022-11-20T16:13:04;15.57;;;3.88;;
18997;SDS011;9632;51.018;4.284;2022-11-20T16:15:55;19.92;;;4.18;;
18997;SDS011;9632;51.018;4.284;2022-11-20T16:18:22;12.25;;;3.30;;
18997;SDS011;9632;51.018;4.284;2022-11-20T16:20:49;19.48;;;4.82;;
18997;SDS011;9632;51.018;4.284;2022-11-20T16:23:17;14.63;;;3.22;;
18997;SDS011;9632;51.018;4.284;2022-11-20T16:25:43;16.58;;;2.80;;
18997;SDS011;9632;51.018;4.284;2022-11-20T16:28:09;20.83;;;4.20;;
18997;SDS011;9632;51.018;4.284;2022-11-20T16:30:36;24.65;;;3.88;;